Time;durP1;ratioP1;P1;durP2;ratioP2;P2;SDS_P1;SDS_P2;PMS_P1;PMS_P2;Temp;Humidity;BMP_temperature;BMP_pressure;BME280_temperature;BME280_humidity;BME280_pressure;Samples;Min_cycle;Max_cycle;Signal;HPM_P1;HPM_P2
2021/05/17 00:02:00;;;;;;;4.33;3.93;;;;;;;13.45;61.85;99981.13;6136699;28;20228;-50
2021/05/17 00:05:22;;;;;;;4.17;3.77;;;;;;;13.35;62.16;99977.97;6130462;29;20242;-47
2021/05/17 00:08:45;;;;;;;5.00;4.50;;;;;;;13.56;61.27;99976.38;6139516;28;20616;-52
2021/05/17 00:12:08;;;;;;;5.20;4.70;;;;;;;13.01;62.79;99970.38;6134495;28;20505;-50
2021/05/17 00:15:29;;;;;;;5.13;4.40;;;;;;;12.92;63.26;99970.66;6131988;28;20600;-52
2021/05/17 00:18:50;;;;;;;5.63;5.03;;;;;;;13.17;62.63;99979.41;6133972;28;20231;-54
2021/05/17 00:22:11;;;;;;;7.80;5.73;;;;;;;12.84;63.98;99975.28;6139539;28;20452;-50
2021/05/17 00:25:33;;;;;;;5.10;4.60;;;;;;;12.54;65.00;99967.50;6138987;28;20239;-50
2021/05/17 00:28:54;;;;;;;4.90;4.50;;;;;;;12.79;63.91;99965.84;6136135;28;20235;-53
2021/05/17 00:32:14;;;;;;;6.90;4.87;;;;;;;12.54;64.70;99967.50;6141041;28;20243;-49
2021/05/17 00:35:35;;;;;;;5.30;4.80;;;;;;;12.60;64.96;99959.47;6144407;28;20239;-53
2021/05/17 00:38:56;;;;;;;5.07;4.40;;;;;;;12.90;64.10;99960.25;6146075;28;20223;-47
2021/05/17 00:42:18;;;;;;;5.63;5.13;;;;;;;13.03;63.43;99960.72;6140527;28;20235;-47
2021/05/17 00:45:39;;;;;;;7.37;4.93;;;;;;;13.12;63.11;99965.63;6145371;28;20243;-48
2021/05/17 00:49:00;;;;;;;6.23;4.70;;;;;;;12.58;65.15;99958.66;6134855;28;20593;-46
2021/05/17 00:52:21;;;;;;;5.80;5.30;;;;;;;12.53;65.21;99961.41;6127048;28;20247;-53
2021/05/17 00:55:42;;;;;;;8.30;6.10;;;;;;;12.36;66.08;99954.09;6138740;28;21504;-53
2021/05/17 00:59:05;;;;;;;5.63;5.20;;;;;;;12.26;66.79;99967.47;6122783;28;20227;-48
2021/05/17 01:02:26;;;;;;;6.03;5.53;;;;;;;12.58;65.74;99969.09;6143256;28;20322;-47
2021/05/17 01:06:07;;;;;;;6.17;5.43;;;;;;;12.69;65.59;99969.63;6126056;28;20235;-48
2021/05/17 01:09:28;;;;;;;6.43;5.83;;;;;;;12.48;66.56;99965.91;6128594;28;20255;-51
2021/05/17 01:12:50;;;;;;;6.43;5.83;;;;;;;12.67;65.66;99967.97;6141868;28;20268;-51
2021/05/17 01:16:12;;;;;;;6.03;5.20;;;;;;;12.93;64.68;99964.53;6135976;28;20258;-45
2021/05/17 01:19:40;;;;;;;6.37;4.83;;;;;;;12.81;65.39;99971.00;6122736;28;20598;-52
2021/05/17 01:23:30;;;;;;;5.97;5.37;;;;;;;13.03;64.54;99967.69;6124707;29;20227;-53
2021/05/17 01:26:57;;;;;;;7.60;5.63;;;;;;;12.95;64.41;99960.97;6141187;28;20239;-54
2021/05/17 01:30:20;;;;;;;9.70;5.50;;;;;;;12.68;65.42;99965.31;6140057;28;20235;-51
2021/05/17 01:33:45;;;;;;;5.17;4.73;;;;;;;12.38;66.21;99961.88;6138731;28;20239;-46
2021/05/17 01:37:07;;;;;;;7.83;5.63;;;;;;;12.66;65.27;99966.25;6127250;28;20608;-47
2021/05/17 01:40:32;;;;;;;9.10;6.07;;;;;;;12.40;66.79;99958.31;6137552;28;20231;-51
2021/05/17 01:43:55;;;;;;;7.03;5.97;;;;;;;12.64;65.67;99968.06;6122216;28;20751;-47
2021/05/17 01:47:18;;;;;;;8.03;5.97;;;;;;;12.49;66.12;99964.19;6122496;29;20234;-51
2021/05/17 01:50:39;;;;;;;8.60;6.33;;;;;;;12.51;65.61;99965.84;6141790;28;20235;-46
2021/05/17 01:53:59;;;;;;;6.17;5.57;;;;;;;12.41;66.48;99967.88;6129207;28;20239;-47
2021/05/17 01:57:22;;;;;;;7.37;5.73;;;;;;;12.46;66.32;99964.28;6139230;28;20235;-48
2021/05/17 02:00:43;;;;;;;8.27;6.37;;;;;;;12.31;66.46;99966.44;6124361;29;20689;-52
2021/05/17 02:04:05;;;;;;;6.80;6.10;;;;;;;12.43;66.36;99961.72;6137039;28;20338;-48
2021/05/17 02:07:25;;;;;;;7.23;6.10;;;;;;;12.35;66.32;99962.84;6136286;28;20823;-46
2021/05/17 02:10:46;;;;;;;9.23;6.23;;;;;;;12.31;66.68;99956.00;6133114;28;20322;-47
2021/05/17 02:14:10;;;;;;;7.83;7.13;;;;;;;12.20;67.09;99968.50;6138417;28;20313;-54
2021/05/17 02:17:32;;;;;;;7.13;5.97;;;;;;;12.10;67.30;99961.84;6125165;28;20247;-51
2021/05/17 02:20:53;;;;;;;7.87;6.63;;;;;;;11.85;68.42;99965.13;6142774;28;20235;-48
2021/05/17 02:24:16;;;;;;;7.87;6.67;;;;;;;12.05;67.56;99966.34;6118607;28;20536;-49
2021/05/17 02:27:41;;;;;;;7.97;6.30;;;;;;;12.16;67.61;99966.91;6129802;28;20320;-48
2021/05/17 02:31:03;;;;;;;6.87;6.20;;;;;;;12.17;66.90;99963.38;6122365;28;20240;-50
2021/05/17 02:34:25;;;;;;;6.77;6.07;;;;;;;12.00;67.25;99967.34;6136378;28;20588;-53
2021/05/17 02:37:46;;;;;;;7.77;7.00;;;;;;;11.96;67.07;99963.09;6139187;28;20589;-53
2021/05/17 02:41:09;;;;;;;7.53;6.73;;;;;;;11.92;67.38;99964.09;6116339;28;20240;-48
2021/05/17 02:44:31;;;;;;;6.93;6.33;;;;;;;11.95;67.78;99971.81;6135788;28;20235;-48
2021/05/17 02:47:52;;;;;;;7.60;6.47;;;;;;;11.74;67.91;99975.00;6137726;28;20609;-48
2021/05/17 02:51:13;;;;;;;7.53;6.77;;;;;;;11.81;67.63;99977.41;6140271;28;20231;-48
2021/05/17 02:54:37;;;;;;;7.23;6.57;;;;;;;11.70;68.03;99976.81;6133802;28;20223;-46
2021/05/17 02:58:14;;;;;;;7.30;6.53;;;;;;;11.72;67.93;99982.00;6126500;28;20227;-50
2021/05/17 03:01:36;;;;;;;9.67;8.10;;;;;;;11.82;67.42;99978.25;6139541;28;20239;-48
2021/05/17 03:05:01;;;;;;;6.87;6.27;;;;;;;11.78;67.52;99982.69;6120238;28;20243;-46
2021/05/17 03:08:29;;;;;;;9.67;6.60;;;;;;;11.55;68.34;99983.28;6137017;28;20231;-51
2021/05/17 03:11:51;;;;;;;7.93;7.03;;;;;;;11.52;68.36;99979.94;6122745;28;20396;-50
2021/05/17 03:15:15;;;;;;;9.43;6.50;;;;;;;11.66;68.23;99990.00;6124192;28;20246;-53
2021/05/17 03:18:37;;;;;;;7.37;6.50;;;;;;;11.61;67.94;99990.09;6132749;28;20576;-51
2021/05/17 03:22:01;;;;;;;7.53;6.83;;;;;;;11.54;67.87;99996.41;6117298;28;20234;-53
2021/05/17 03:25:24;;;;;;;8.00;5.97;;;;;;;11.63;68.04;99999.63;6133546;28;20496;-48
2021/05/17 03:28:45;;;;;;;6.73;6.13;;;;;;;11.79;67.16;99994.00;6136562;28;20242;-53
2021/05/17 03:32:06;;;;;;;8.87;6.80;;;;;;;11.56;68.11;99992.84;6132480;28;20524;-52
2021/05/17 03:35:26;;;;;;;7.83;6.53;;;;;;;11.73;67.15;99991.53;6132654;28;20231;-53
2021/05/17 03:38:48;;;;;;;7.23;5.93;;;;;;;11.63;67.15;99998.75;6137023;28;20255;-53
2021/05/17 03:42:08;;;;;;;9.43;8.30;;;;;;;11.33;68.66;99997.78;6134637;28;20239;-51
2021/05/17 03:45:29;;;;;;;8.23;7.43;;;;;;;11.43;68.61;100007.94;6136625;28;20314;-50
2021/05/17 03:48:49;;;;;;;6.87;6.17;;;;;;;10.66;71.64;100006.31;6136727;28;20329;-49
2021/05/17 03:52:10;;;;;;;8.73;7.93;;;;;;;11.29;69.54;99996.16;6133059;28;20239;-51
2021/05/17 03:55:31;;;;;;;10.13;7.33;;;;;;;11.34;69.19;99991.69;6141259;28;20234;-49
2021/05/17 03:58:51;;;;;;;7.40;6.70;;;;;;;11.66;68.51;99995.22;6138598;28;20322;-53
2021/05/17 04:02:17;;;;;;;7.90;6.17;;;;;;;11.94;67.03;99991.00;6141171;28;20314;-49
2021/05/17 04:05:45;;;;;;;7.53;6.57;;;;;;;12.11;66.52;99989.66;6140057;28;20243;-51
2021/05/17 04:16:24;;;;;;;8.33;7.50;;;;;;;11.55;69.36;100011.13;6140030;28;20254;-49
2021/05/17 04:19:44;;;;;;;7.30;6.70;;;;;;;11.62;70.03;100013.53;6137118;29;20227;-47
2021/05/17 04:23:05;;;;;;;12.80;7.10;;;;;;;11.70;70.46;100020.31;6143504;28;20235;-54
2021/05/17 04:26:25;;;;;;;7.73;7.03;;;;;;;12.21;67.85;100014.59;6132966;28;20235;-52
2021/05/17 04:29:47;;;;;;;6.90;6.20;;;;;;;11.71;70.32;100030.72;6141109;28;20251;-51
2021/05/17 04:33:07;;;;;;;7.80;6.87;;;;;;;11.97;69.20;100037.88;6139319;29;20322;-51
2021/05/17 04:36:29;;;;;;;12.53;6.57;;;;;;;11.63;70.30;100030.03;6133020;28;20235;-49
2021/05/17 04:39:50;;;;;;;7.97;6.03;;;;;;;11.28;70.75;100037.00;6140857;28;20554;-49
2021/05/17 04:43:10;;;;;;;6.00;5.37;;;;;;;11.66;69.02;100040.41;6139704;28;20231;-49
2021/05/17 04:46:31;;;;;;;5.03;4.53;;;;;;;11.31;70.10;100043.91;6138332;28;20231;-47
2021/05/17 04:49:52;;;;;;;6.07;4.97;;;;;;;11.33;70.00;100044.72;6139587;28;20227;-49
2021/05/17 04:53:12;;;;;;;5.57;4.63;;;;;;;11.73;68.57;100041.09;6144720;28;20263;-50
2021/05/17 04:56:33;;;;;;;5.07;4.33;;;;;;;11.90;67.69;100044.13;6137522;28;20239;-51
2021/05/17 04:59:53;;;;;;;7.10;4.93;;;;;;;12.20;66.53;100041.59;6139950;28;20227;-50
2021/05/17 05:03:15;;;;;;;7.30;4.87;;;;;;;12.53;65.81;100033.69;6139900;28;20244;-47
2021/05/17 05:06:35;;;;;;;7.83;4.83;;;;;;;12.59;65.69;100038.75;6138970;28;20239;-51
2021/05/17 05:09:55;;;;;;;6.87;6.20;;;;;;;12.56;65.57;100041.44;6136077;28;20239;-50
2021/05/17 05:13:16;;;;;;;6.53;5.77;;;;;;;13.00;63.77;100044.44;6124159;28;20472;-47
2021/05/17 05:16:37;;;;;;;7.27;5.37;;;;;;;13.52;61.93;100032.34;6127860;28;20231;-53
2021/05/17 05:19:58;;;;;;;5.90;5.40;;;;;;;13.92;61.31;100038.81;6141072;29;20754;-49
2021/05/17 05:23:21;;;;;;;6.40;5.80;;;;;;;13.24;62.24;100037.59;6137235;28;20231;-49
2021/05/17 05:26:57;;;;;;;7.83;7.03;;;;;;;13.15;62.70;100035.28;6139976;28;20227;-48
2021/05/17 05:30:25;;;;;;;7.60;5.97;;;;;;;13.82;60.63;100033.94;6136130;28;20438;-46
2021/05/17 05:33:46;;;;;;;9.20;6.70;;;;;;;13.63;61.02;100041.56;6138610;28;20242;-45
2021/05/17 05:37:07;;;;;;;8.20;6.13;;;;;;;13.90;60.34;100048.50;6127848;28;20227;-48
2021/05/17 05:40:27;;;;;;;9.47;6.73;;;;;;;13.98;59.82;100046.44;6129698;28;20235;-49
2021/05/17 05:43:48;;;;;;;8.47;7.53;;;;;;;12.95;62.94;100041.13;6129640;28;20747;-50
2021/05/17 05:47:10;;;;;;;8.47;6.43;;;;;;;13.44;61.87;100038.75;6135828;28;20235;-52
2021/05/17 05:50:31;;;;;;;7.80;6.30;;;;;;;13.97;60.21;100049.97;6129833;28;20231;-50
2021/05/17 05:53:53;;;;;;;8.67;6.60;;;;;;;14.13;60.24;100062.50;6134638;28;20235;-53
2021/05/17 05:57:15;;;;;;;6.83;6.23;;;;;;;14.12;60.13;100068.66;6138467;28;20235;-48
2021/05/17 06:00:35;;;;;;;10.90;8.10;;;;;;;12.88;62.90;100063.97;6131332;28;20227;-48
2021/05/17 06:03:56;;;;;;;7.77;7.07;;;;;;;13.31;61.82;100065.28;6139278;28;20235;-50
2021/05/17 06:07:16;;;;;;;8.03;7.30;;;;;;;13.65;61.04;100076.38;6123607;28;20693;-48
2021/05/17 06:10:38;;;;;;;8.20;6.77;;;;;;;14.01;59.71;100071.66;6139802;28;20653;-50
2021/05/17 06:14:00;;;;;;;7.63;6.70;;;;;;;14.32;58.76;100076.66;6139983;28;20512;-52
2021/05/17 06:17:21;;;;;;;10.50;7.70;;;;;;;14.72;58.26;100080.44;6125257;28;20317;-48
2021/05/17 06:20:42;;;;;;;12.47;8.40;;;;;;;13.80;60.87;100088.94;6131863;28;20239;-51
2021/05/17 06:24:03;;;;;;;10.73;8.40;;;;;;;12.96;63.34;100085.50;6135417;28;20254;-50
2021/05/17 06:27:25;;;;;;;11.83;8.13;;;;;;;12.94;63.84;100096.91;6131916;28;20227;-52
2021/05/17 06:30:50;;;;;;;10.80;8.57;;;;;;;12.92;64.15;100090.88;6132736;28;20227;-47
2021/05/17 06:34:11;;;;;;;12.30;8.90;;;;;;;12.75;64.51;100105.28;6132055;28;20258;-52
2021/05/17 06:37:32;;;;;;;10.63;8.97;;;;;;;12.37;65.69;100107.25;6127490;28;20239;-48
2021/05/17 06:40:54;;;;;;;13.63;8.17;;;;;;;12.97;63.50;100104.69;6134480;28;20239;-47
2021/05/17 06:44:16;;;;;;;10.87;7.90;;;;;;;13.70;61.27;100098.03;6137195;28;20235;-49
2021/05/17 06:47:37;;;;;;;11.57;8.87;;;;;;;14.03;60.47;100109.09;6135448;28;20239;-52
2021/05/17 06:50:58;;;;;;;13.67;9.83;;;;;;;13.06;64.13;100109.59;6136308;28;20962;-50
2021/05/17 06:54:23;;;;;;;12.90;10.23;;;;;;;13.03;64.23;100107.09;6130016;28;20346;-48
2021/05/17 06:57:57;;;;;;;9.67;8.20;;;;;;;14.11;61.23;100114.06;6134829;28;20235;-54
2021/05/17 07:01:20;;;;;;;12.77;9.27;;;;;;;12.95;64.32;100116.91;6127192;28;20227;-49
2021/05/17 07:04:41;;;;;;;11.53;8.97;;;;;;;13.73;62.33;100108.41;6132785;28;20313;-46
2021/05/17 07:11:48;;;;;;;8.83;7.80;;;;;;;13.66;61.51;100117.34;6130760;28;20509;-52
2021/05/17 07:15:09;;;;;;;12.83;10.43;;;;;;;13.12;63.32;100121.63;6125486;28;20932;-48
2021/05/17 07:18:31;;;;;;;9.13;7.57;;;;;;;13.26;62.65;100121.19;6129913;28;20247;-48
2021/05/17 07:25:30;;;;;;;9.57;7.83;;;;;;;14.38;58.77;100120.97;6128241;28;20235;-48
2021/05/17 07:28:52;;;;;;;9.10;6.80;;;;;;;13.45;61.89;100111.91;6138292;28;20325;-48
2021/05/17 07:32:12;;;;;;;7.57;6.10;;;;;;;14.69;58.73;100116.41;6127246;28;20247;-48
2021/05/17 07:35:34;;;;;;;14.03;8.00;;;;;;;14.55;59.57;100129.97;6139963;28;20242;-49
2021/05/17 07:38:54;;;;;;;7.93;7.03;;;;;;;14.51;58.86;100128.38;6129874;28;20223;-51
2021/05/17 07:42:15;;;;;;;8.83;6.70;;;;;;;14.11;59.84;100129.78;6138629;28;20315;-53
2021/05/17 07:45:35;;;;;;;10.40;7.50;;;;;;;14.54;59.11;100136.16;6127254;28;20231;-51
2021/05/17 07:49:15;;;;;;;10.47;7.23;;;;;;;14.11;59.80;100137.63;6138761;28;20239;-50
2021/05/17 07:52:37;;;;;;;6.97;6.37;;;;;;;13.99;59.80;100131.91;6138258;28;20239;-49
2021/05/17 07:55:58;;;;;;;8.13;7.33;;;;;;;15.00;57.42;100131.81;6132404;28;20235;-47
2021/05/17 07:59:19;;;;;;;9.07;7.10;;;;;;;14.89;56.89;100132.25;6136952;28;20735;-48
2021/05/17 08:02:40;;;;;;;10.17;7.07;;;;;;;14.32;58.80;100131.66;6136405;28;20239;-50
2021/05/17 08:06:00;;;;;;;6.07;5.47;;;;;;;14.52;57.53;100130.06;6135143;28;20629;-55
2021/05/17 08:09:23;;;;;;;10.83;7.10;;;;;;;15.51;54.89;100117.59;6133655;28;20231;-48
2021/05/17 08:12:43;;;;;;;7.93;5.10;;;;;;;15.98;53.98;100123.59;6135946;28;20227;-52
2021/05/17 08:16:05;;;;;;;7.93;5.67;;;;;;;15.47;53.63;100120.38;6123892;28;20751;-55
2021/05/17 08:19:25;;;;;;;5.63;4.70;;;;;;;16.37;51.11;100126.25;6133472;28;20228;-54
2021/05/17 08:22:46;;;;;;;5.83;5.17;;;;;;;14.98;53.15;100133.66;6137310;28;20359;-49
2021/05/17 08:26:08;;;;;;;8.83;5.20;;;;;;;14.76;54.56;100136.25;6134388;28;20255;-50
2021/05/17 08:29:32;;;;;;;5.07;3.63;;;;;;;14.50;52.90;100138.03;6134435;28;20243;-51
2021/05/17 08:32:53;;;;;;;5.33;4.73;;;;;;;14.52;53.65;100136.19;6136663;28;20231;-48
2021/05/17 08:36:14;;;;;;;11.07;7.43;;;;;;;14.58;55.09;100129.91;6137947;28;20239;-52
2021/05/17 08:39:34;;;;;;;6.27;4.77;;;;;;;15.11;53.44;100136.66;6142954;28;20254;-52
2021/05/17 08:42:56;;;;;;;8.80;4.73;;;;;;;14.39;55.03;100140.16;6141717;28;20231;-46
2021/05/17 08:46:17;;;;;;;8.43;3.90;;;;;;;14.57;54.99;100139.53;6144000;28;20232;-49
2021/05/17 08:49:37;;;;;;;5.20;4.30;;;;;;;14.74;55.16;100141.53;6137294;28;20496;-53
2021/05/17 08:52:58;;;;;;;5.57;4.50;;;;;;;16.45;50.94;100125.91;6135649;28;20234;-52
2021/05/17 08:56:20;;;;;;;4.93;4.13;;;;;;;16.30;51.91;100133.56;6135972;28;20243;-51
2021/05/17 08:59:41;;;;;;;6.97;3.80;;;;;;;15.53;53.08;100125.41;6138604;28;20235;-53
2021/05/17 09:03:01;;;;;;;5.60;4.33;;;;;;;16.64;50.49;100126.78;6135734;28;20226;-52
2021/05/17 09:06:23;;;;;;;4.93;2.90;;;;;;;15.58;50.30;100133.06;6137163;28;20609;-51
2021/05/17 09:09:44;;;;;;;4.47;3.17;;;;;;;16.95;47.34;100120.16;6136930;28;20235;-52
2021/05/17 09:13:06;;;;;;;4.37;3.03;;;;;;;17.35;46.61;100123.56;6132125;28;20239;-52
2021/05/17 09:16:44;;;;;;;4.77;3.37;;;;;;;17.34;46.25;100127.09;6125424;28;20621;-52
2021/05/17 09:20:22;;;;;;;5.37;3.30;;;;;;;16.36;47.76;100126.31;6128203;28;20665;-51
2021/05/17 09:23:42;;;;;;;6.90;3.07;;;;;;;16.84;46.65;100117.19;6122800;28;20314;-51
2021/05/17 09:27:04;;;;;;;5.60;2.53;;;;;;;15.87;46.90;100124.88;6133741;28;20222;-49
2021/05/17 09:30:25;;;;;;;3.70;2.40;;;;;;;16.70;46.38;100133.56;6136710;29;20235;-50
2021/05/17 09:33:49;;;;;;;4.50;2.57;;;;;;;17.82;43.22;100122.97;6124258;29;20551;-54
2021/05/17 09:37:10;;;;;;;4.53;2.80;;;;;;;18.39;41.73;100121.88;6135727;28;20262;-49
2021/05/17 09:40:33;;;;;;;3.30;2.20;;;;;;;18.79;41.29;100119.78;6134448;28;20231;-51
2021/05/17 09:43:54;;;;;;;2.47;1.57;;;;;;;17.82;41.24;100117.72;6128670;29;20231;-49
2021/05/17 09:47:17;;;;;;;3.25;2.40;;;;;;;17.61;42.86;100118.78;6137614;28;20244;-48
2021/05/17 09:51:13;;;;;;;4.63;2.75;;;;;;;16.44;44.83;100121.56;6131709;28;20584;-51
2021/05/17 09:54:47;;;;;;;4.32;3.25;;;;;;;15.99;47.23;100117.41;6139673;29;20325;-53
2021/05/17 09:58:07;;;;;;;4.10;3.70;;;;;;;16.85;45.64;100121.53;6114430;28;20227;-50
2021/05/17 10:01:29;;;;;;;3.40;3.10;;;;;;;16.88;45.44;100124.00;6135649;28;20243;-50
2021/05/17 10:04:49;;;;;;;4.17;2.90;;;;;;;15.89;47.90;100127.44;6126949;28;20452;-54
2021/05/17 10:08:12;;;;;;;4.57;4.00;;;;;;;16.45;46.47;100115.41;6131233;28;20242;-51
2021/05/17 10:11:33;;;;;;;3.97;3.20;;;;;;;15.50;47.66;100130.75;6130741;29;20231;-53
2021/05/17 10:14:53;;;;;;;4.83;3.47;;;;;;;16.21;47.18;100128.69;6128413;29;20243;-54
2021/05/17 10:18:14;;;;;;;3.67;2.70;;;;;;;16.30;46.76;100141.44;6127135;29;20231;-51
2021/05/17 10:21:35;;;;;;;3.57;3.07;;;;;;;16.61;45.91;100136.59;6126999;28;20239;-53
2021/05/17 10:24:59;;;;;;;7.23;3.80;;;;;;;16.47;46.47;100134.59;6116419;29;20235;-50
2021/05/17 10:28:24;;;;;;;3.80;2.63;;;;;;;16.34;46.17;100140.38;6128464;28;20239;-53
2021/05/17 10:31:52;;;;;;;5.90;2.60;;;;;;;16.01;46.25;100147.06;6130670;29;20231;-51
2021/05/17 10:35:16;;;;;;;4.47;2.53;;;;;;;16.36;45.34;100144.72;6129296;28;20639;-48
2021/05/17 10:38:43;;;;;;;6.80;3.40;;;;;;;16.35;46.53;100151.75;6130876;29;20239;-52
2021/05/17 10:42:18;;;;;;;4.53;3.20;;;;;;;16.72;46.38;100147.47;6134559;28;20242;-48
2021/05/17 10:49:18;;;;;;;4.97;2.73;;;;;;;16.19;47.29;100151.56;6135936;28;20618;-52
2021/05/17 10:52:39;;;;;;;3.03;2.73;;;;;;;16.06;47.91;100134.63;6133838;28;20318;-52
2021/05/17 10:56:00;;;;;;;5.67;2.80;;;;;;;16.78;46.18;100144.56;6139492;28;20235;-54
2021/05/17 11:03:15;;;;;;;1.30;1.10;;;;;;;14.11;51.16;100187.38;6120680;28;20559;-53
2021/05/17 11:06:39;;;;;;;1.90;1.27;;;;;;;14.34;50.83;100176.97;6139046;29;20322;-51
2021/05/17 11:10:18;;;;;;;1.63;1.20;;;;;;;13.58;54.13;100194.31;6108182;29;20267;-50
2021/05/17 11:13:38;;;;;;;2.80;1.77;;;;;;;14.06;55.01;100199.81;6135050;28;20247;-52
2021/05/17 11:17:00;;;;;;;1.70;1.60;;;;;;;13.63;56.22;100203.78;6130628;28;20607;-53
2021/05/17 11:20:58;;;;;;;3.17;1.80;;;;;;;13.58;58.25;100210.00;6122607;28;20231;-51
2021/05/17 11:24:25;;;;;;;3.23;2.23;;;;;;;13.98;55.45;100213.13;6066239;29;20240;-51
2021/05/17 11:27:46;;;;;;;2.17;1.90;;;;;;;14.73;55.20;100217.59;6078819;28;20231;-51
2021/05/17 11:31:12;;;;;;;2.67;2.23;;;;;;;15.42;55.55;100214.19;6082312;28;20785;-50
2021/05/17 11:34:34;;;;;;;1.87;1.70;;;;;;;16.55;50.92;100206.06;6083544;29;20615;-53
2021/05/17 11:38:07;;;;;;;1.80;1.30;;;;;;;17.13;49.58;100200.00;6075119;29;20240;-51
2021/05/17 11:41:29;;;;;;;1.67;1.50;;;;;;;18.46;46.96;100197.94;6077319;29;20236;-49
2021/05/17 11:44:54;;;;;;;2.27;1.37;;;;;;;17.22;48.61;100204.84;6071752;29;20264;-52
2021/05/17 11:48:15;;;;;;;3.93;1.97;;;;;;;18.64;47.05;100206.66;6078296;29;20244;-51
2021/05/17 11:51:36;;;;;;;2.78;1.67;;;;;;;19.41;44.79;100205.22;6072626;29;20241;-49
2021/05/17 11:54:58;;;;;;;1.63;1.42;;;;;;;18.01;47.89;100206.38;6074278;29;20240;-53
2021/05/17 11:58:23;;;;;;;1.60;1.50;;;;;;;16.69;48.58;100211.59;6075344;29;20240;-49
2021/05/17 12:01:47;;;;;;;2.10;1.65;;;;;;;18.59;45.22;100208.72;6065648;29;20260;-52
2021/05/17 12:05:08;;;;;;;1.77;1.50;;;;;;;18.36;44.27;100201.09;6073907;29;20327;-49
2021/05/17 12:08:29;;;;;;;2.33;1.25;;;;;;;17.25;45.89;100206.47;6071190;29;20312;-49
2021/05/17 12:11:51;;;;;;;3.53;1.77;;;;;;;16.22;48.59;100211.00;6071958;29;20240;-48
2021/05/17 12:15:16;;;;;;;2.20;1.30;;;;;;;15.51;50.39;100206.81;6070280;29;20351;-53
2021/05/17 12:18:36;;;;;;;2.30;1.97;;;;;;;16.17;50.43;100199.81;6082395;29;20529;-53
2021/05/17 12:21:59;;;;;;;2.23;2.07;;;;;;;15.63;50.89;100210.72;6074163;29;20240;-52
2021/05/17 12:25:23;;;;;;;2.23;1.57;;;;;;;15.74;51.84;100199.81;6085268;29;20326;-50
2021/05/17 12:28:46;;;;;;;1.77;1.27;;;;;;;14.98;53.17;100212.31;6088477;29;20311;-49
2021/05/17 12:32:11;;;;;;;2.13;1.43;;;;;;;16.33;50.99;100195.63;6089473;29;20240;-51
2021/05/17 12:35:33;;;;;;;4.27;1.70;;;;;;;17.56;48.17;100190.06;6080602;29;20615;-55
2021/05/17 12:38:56;;;;;;;5.10;1.77;;;;;;;16.73;49.61;100201.78;6076465;29;20526;-49
2021/05/17 12:42:18;;;;;;;2.37;1.50;;;;;;;16.64;49.88;100194.31;6078773;29;20846;-51
2021/05/17 12:45:44;;;;;;;3.70;2.23;;;;;;;17.24;48.86;100196.88;6080635;29;20236;-49
2021/05/17 12:49:04;;;;;;;2.50;1.37;;;;;;;20.15;41.56;100187.81;6066579;29;20260;-51
2021/05/17 12:52:27;;;;;;;2.07;1.70;;;;;;;23.88;34.18;100174.56;6078868;29;20269;-53
2021/05/17 12:55:49;;;;;;;1.83;1.63;;;;;;;20.40;39.22;100179.28;6085833;29;20264;-52
2021/05/17 12:59:14;;;;;;;2.65;2.00;;;;;;;24.85;32.34;100172.47;6090899;29;20243;-50
2021/05/17 13:02:35;;;;;;;5.80;1.60;;;;;;;21.30;35.63;100176.44;6083472;29;20351;-50
2021/05/17 13:05:58;;;;;;;5.05;2.15;;;;;;;20.64;37.95;100178.75;6077159;29;20315;-53
2021/05/17 13:09:20;;;;;;;1.10;1.00;;;;;;;21.26;36.68;100178.44;6081417;29;20236;-49
2021/05/17 13:12:49;;;;;;;2.15;1.48;;;;;;;20.01;39.30;100182.50;6088067;29;20244;-51
2021/05/17 13:16:14;;;;;;;2.95;1.38;;;;;;;18.27;43.18;100184.84;6085771;29;20240;-49
2021/05/17 13:19:46;;;;;;;1.60;1.50;;;;;;;18.73;42.56;100180.72;6087138;29;20225;-52
2021/05/17 13:30:33;;;;;;;1.70;1.60;;;;;;;22.67;34.05;100175.34;6086861;29;20241;-50
2021/05/17 13:33:54;;;;;;;2.72;2.10;;;;;;;20.17;39.00;100180.66;6081145;29;20232;-47
2021/05/17 13:37:15;;;;;;;2.58;1.63;;;;;;;18.99;41.23;100184.66;6078360;29;20233;-52
2021/05/17 13:40:35;;;;;;;1.55;1.35;;;;;;;18.08;43.26;100181.44;6079945;29;20623;-49
2021/05/17 13:43:55;;;;;;;1.70;1.58;;;;;;;17.53;44.84;100174.44;6084716;29;20954;-47
2021/05/17 13:47:16;;;;;;;3.47;2.65;;;;;;;18.29;44.07;100175.06;6084611;29;20229;-49
2021/05/17 13:50:38;;;;;;;1.98;1.52;;;;;;;18.70;42.60;100179.97;6080452;29;20260;-51
2021/05/17 13:53:58;;;;;;;2.92;2.17;;;;;;;18.84;42.07;100181.94;6079320;29;20240;-50
2021/05/17 13:57:18;;;;;;;1.98;1.40;;;;;;;18.04;45.33;100180.72;6078355;29;20236;-47
2021/05/17 14:00:39;;;;;;;3.10;1.55;;;;;;;18.23;44.27;100182.44;6085877;29;20505;-51
2021/05/17 14:04:00;;;;;;;2.13;1.90;;;;;;;18.76;44.35;100177.94;6076724;29;20454;-47
2021/05/17 14:07:21;;;;;;;1.70;1.60;;;;;;;18.68;44.05;100179.19;6081456;29;20778;-47
2021/05/17 14:10:42;;;;;;;2.55;2.22;;;;;;;19.01;47.95;100174.88;6090671;29;20240;-51
2021/05/17 14:14:03;;;;;;;2.25;2.05;;;;;;;18.59;44.29;100177.06;6078744;29;20351;-48
2021/05/17 14:17:23;;;;;;;3.83;2.15;;;;;;;18.86;48.59;100179.19;6081665;29;20255;-52
2021/05/17 14:20:44;;;;;;;2.30;2.10;;;;;;;18.46;45.80;100186.53;6078132;29;20622;-50
2021/05/17 14:24:06;;;;;;;2.40;2.13;;;;;;;17.59;46.65;100179.41;6078035;29;20420;-48
2021/05/17 14:27:29;;;;;;;3.53;1.80;;;;;;;17.77;49.20;100190.81;6076321;29;20324;-48
2021/05/17 14:30:49;;;;;;;3.37;3.00;;;;;;;16.67;48.43;100199.41;6079122;29;20244;-47
2021/05/17 14:34:10;;;;;;;2.97;2.53;;;;;;;15.87;49.46;100210.66;6080334;29;20646;-48
2021/05/17 14:37:30;;;;;;;2.70;2.30;;;;;;;15.38;50.38;100217.84;6077182;29;21321;-44
2021/05/17 14:40:52;;;;;;;3.10;2.50;;;;;;;15.53;53.17;100225.97;6086949;29;20232;-51
2021/05/17 14:44:12;;;;;;;3.40;2.73;;;;;;;14.94;54.70;100236.94;6083727;29;20467;-50
2021/05/17 14:47:33;;;;;;;3.70;3.40;;;;;;;15.53;53.74;100225.13;6084551;29;20232;-49
2021/05/17 14:50:54;;;;;;;6.10;5.60;;;;;;;17.00;51.74;100212.88;6095192;29;20764;-50
2021/05/17 14:54:15;;;;;;;3.40;3.10;;;;;;;17.78;51.30;100218.88;6086623;29;20236;-47
2021/05/17 14:57:37;;;;;;;4.33;3.37;;;;;;;18.09;51.11;100225.31;6084424;29;20320;-47
2021/05/17 15:00:57;;;;;;;3.57;2.53;;;;;;;18.29;49.88;100225.16;6086776;29;20697;-48
2021/05/17 15:04:18;;;;;;;2.70;2.50;;;;;;;18.60;48.11;100230.66;6082606;29;20285;-47
2021/05/17 15:07:38;;;;;;;8.20;6.60;;;;;;;18.28;49.22;100236.63;6080881;29;20244;-50
2021/05/17 15:10:58;;;;;;;4.73;3.87;;;;;;;18.46;48.36;100236.63;6082004;29;20229;-45
2021/05/17 15:14:20;;;;;;;4.40;3.60;;;;;;;18.51;48.39;100247.78;6087897;29;20691;-47
2021/05/17 15:17:40;;;;;;;4.15;3.78;;;;;;;17.17;51.50;100255.97;6084402;29;20233;-51
2021/05/17 15:21:00;;;;;;;9.60;8.70;;;;;;;17.17;52.98;100266.50;6076244;29;20391;-53
2021/05/17 15:24:21;;;;;;;8.30;6.10;;;;;;;18.15;50.10;100256.63;6088832;29;20236;-47
2021/05/17 15:27:41;;;;;;;5.23;4.73;;;;;;;18.48;49.19;100253.22;6083984;29;20237;-51
2021/05/17 15:31:03;;;;;;;3.83;2.80;;;;;;;18.27;48.24;100263.91;6080068;29;20323;-53
2021/05/17 15:34:23;;;;;;;3.27;2.20;;;;;;;17.55;46.20;100261.25;6087837;29;20240;-51
2021/05/17 15:37:45;;;;;;;1.73;1.63;;;;;;;17.54;45.27;100268.28;6094684;29;20240;-50
2021/05/17 15:41:05;;;;;;;2.20;2.00;;;;;;;17.61;46.38;100266.22;6087055;29;20232;-48
2021/05/17 15:44:26;;;;;;;2.63;2.43;;;;;;;17.27;47.98;100260.75;6086089;29;20241;-45
2021/05/17 15:47:47;;;;;;;4.83;2.60;;;;;;;17.37;48.80;100269.09;6087084;29;20240;-49
2021/05/17 15:51:07;;;;;;;2.70;2.50;;;;;;;17.39;47.51;100264.59;6091218;29;20240;-49
2021/05/17 15:54:28;;;;;;;3.43;2.90;;;;;;;17.06;47.83;100266.97;6096550;29;20546;-52
2021/05/17 15:57:49;;;;;;;3.07;2.80;;;;;;;16.74;48.26;100256.91;6090395;29;20599;-51
2021/05/17 16:01:11;;;;;;;4.03;3.67;;;;;;;16.72;48.47;100261.38;6077946;29;20236;-47
2021/05/17 16:04:33;;;;;;;4.23;3.67;;;;;;;16.64;48.81;100263.50;6091753;29;20228;-50
2021/05/17 16:07:55;;;;;;;4.13;3.73;;;;;;;16.36;50.90;100262.94;6094549;29;20236;-50
2021/05/17 16:11:17;;;;;;;5.33;4.93;;;;;;;16.19;51.63;100264.50;6089774;29;20233;-52
2021/05/17 16:14:41;;;;;;;5.17;4.77;;;;;;;17.03;49.74;100257.44;6092745;29;20233;-48